Time;durP1;ratioP1;P1;durP2;ratioP2;P2;SDS_P1;SDS_P2;PMS_P1;PMS_P2;Temp;Humidity;BMP_temperature;BMP_pressure;BME280_temperature;BME280_humidity;BME280_pressure;Samples;Min_cycle;Max_cycle;Signal;HPM_P1;HPM_P2
2022/11/25 00:00:47;;;;;;;4.40;2.80;;;16.80;62.50;17.90;100373.00;;;;5052683;28;20173;-51
2022/11/25 00:03:13;;;;;;;4.93;2.93;;;16.80;62.50;17.90;100381.00;;;;5070184;28;20265;-50
2022/11/25 00:05:39;;;;;;;4.67;2.90;;;16.80;62.50;17.80;100367.00;;;;5070288;28;20251;-51
2022/11/25 00:08:04;;;;;;;4.97;2.70;;;16.80;62.50;17.80;100367.00;;;;5070545;28;20616;-52
2022/11/25 00:10:30;;;;;;;3.60;2.50;;;16.80;62.60;17.80;100363.00;;;;5070078;28;20213;-51
2022/11/25 00:12:56;;;;;;;4.57;2.77;;;16.70;62.60;17.80;100366.00;;;;5069903;28;20666;-50
2022/11/25 00:15:22;;;;;;;4.23;2.60;;;16.70;62.70;17.80;100358.00;;;;5069586;28;20198;-51
2022/11/25 00:17:47;;;;;;;5.20;3.03;;;16.70;62.60;17.80;100364.00;;;;5069617;28;20188;-51
2022/11/25 00:20:13;;;;;;;3.83;2.50;;;16.70;62.60;17.70;100366.00;;;;5069786;28;20170;-51
2022/11/25 00:22:39;;;;;;;6.27;2.60;;;16.70;63.40;17.70;100358.00;;;;5069412;28;20201;-52
2022/11/25 00:25:05;;;;;;;4.43;2.70;;;16.70;62.60;17.70;100346.00;;;;5069779;28;20181;-51
2022/11/25 00:27:31;;;;;;;4.83;2.70;;;16.70;62.60;17.70;100355.00;;;;5069846;28;20724;-51
2022/11/25 00:29:56;;;;;;;5.33;2.83;;;16.70;62.70;17.70;100358.00;;;;5069806;28;20253;-51
2022/11/25 00:32:22;;;;;;;4.43;2.70;;;16.60;62.60;17.70;100350.00;;;;5069504;28;20165;-48
2022/11/25 00:34:48;;;;;;;4.53;2.47;;;16.60;62.70;17.70;100344.00;;;;5069361;28;20177;-51
2022/11/25 00:37:13;;;;;;;5.37;2.80;;;16.60;62.60;17.60;100345.00;;;;5051506;28;20179;-51
2022/11/25 00:39:39;;;;;;;4.60;2.80;;;16.60;62.50;17.60;100340.00;;;;5069493;28;20175;-52
2022/11/25 00:44:49;;;;;;;5.63;2.63;;;16.60;62.70;17.60;100321.00;;;;5069174;28;20811;-52
2022/11/25 00:47:19;;;;;;;4.13;2.43;;;16.60;62.50;17.60;100332.00;;;;5069114;28;20201;-49
2022/11/25 00:49:53;;;;;;;4.73;2.53;;;16.50;62.60;17.60;100319.00;;;;5068895;28;20206;-50
2022/11/25 00:52:24;;;;;;;3.33;2.40;;;16.50;62.60;17.50;100323.00;;;;5069178;28;20181;-52
2022/11/25 00:54:50;;;;;;;4.63;2.70;;;16.50;62.70;17.50;100333.00;;;;5068540;28;20167;-50
2022/11/25 00:57:18;;;;;;;3.87;2.67;;;16.50;62.50;17.50;100323.00;;;;5069009;28;20224;-50
2022/11/25 00:59:43;;;;;;;3.53;2.43;;;16.40;62.50;17.50;100316.00;;;;5051024;28;20228;-53
2022/11/25 01:02:11;;;;;;;3.90;2.40;;;16.40;62.50;17.50;100333.00;;;;5070441;28;20178;-50
2022/11/25 01:04:36;;;;;;;3.20;2.33;;;16.40;62.40;17.50;100312.00;;;;5053286;28;20225;-52
2022/11/25 01:07:02;;;;;;;3.60;2.47;;;16.40;62.30;17.40;100320.00;;;;5071363;28;20293;-51
2022/11/25 01:09:28;;;;;;;4.70;2.53;;;16.40;62.20;17.40;100316.00;;;;5069145;28;20197;-51
2022/11/25 01:11:54;;;;;;;4.43;2.57;;;16.40;62.30;17.40;100315.00;;;;5068495;28;20224;-52
2022/11/25 01:14:20;;;;;;;5.37;2.40;;;16.40;62.30;17.40;100318.00;;;;5069059;28;20174;-51
2022/11/25 01:16:47;;;;;;;3.87;2.47;;;16.40;62.20;17.40;100321.00;;;;5050757;28;20211;-51
2022/11/25 01:19:12;;;;;;;4.10;2.50;;;16.40;62.30;17.40;100303.00;;;;5034630;28;20690;-51
2022/11/25 01:21:38;;;;;;;3.40;2.50;;;16.40;62.20;17.30;100321.00;;;;5050244;28;20274;-51
2022/11/25 01:24:05;;;;;;;3.57;2.40;;;16.30;62.20;17.30;100315.00;;;;5068356;28;20193;-51
2022/11/25 01:26:34;;;;;;;3.53;2.30;;;16.30;62.20;17.30;100325.00;;;;5050467;28;20225;-51
2022/11/25 01:29:02;;;;;;;2.93;2.40;;;16.30;62.20;17.30;100320.00;;;;5069472;28;20174;-50
2022/11/25 01:31:30;;;;;;;3.43;2.10;;;16.30;62.10;17.30;100324.00;;;;5072162;28;20253;-50
2022/11/25 01:33:59;;;;;;;4.10;2.40;;;16.30;62.20;17.30;100322.00;;;;5073153;28;20173;-51
2022/11/25 01:36:25;;;;;;;2.90;2.40;;;16.30;62.20;17.30;100310.00;;;;5051155;28;20255;-52
2022/11/25 01:38:52;;;;;;;3.63;2.27;;;16.30;62.20;17.30;100324.00;;;;5068922;28;20179;-51
2022/11/25 01:41:18;;;;;;;3.67;2.40;;;16.20;62.10;17.30;100318.00;;;;5068277;28;20177;-52
2022/11/25 01:44:08;;;;;;;2.83;2.10;;;16.20;62.00;17.20;100320.00;;;;5068912;28;20429;-51
2022/11/25 01:47:00;;;;;;;3.40;2.33;;;16.20;62.30;17.20;100319.00;;;;5051496;28;20292;-51
2022/11/25 01:49:49;;;;;;;3.93;2.50;;;16.20;62.30;17.20;100325.00;;;;5068454;28;20193;-51
2022/11/25 01:52:28;;;;;;;4.00;2.27;;;16.20;62.30;17.20;100310.00;;;;5034262;28;20174;-52
2022/11/25 01:55:02;;;;;;;4.57;2.60;;;16.10;62.20;17.20;100319.00;;;;5049964;28;20239;-51
2022/11/25 01:57:43;;;;;;;3.97;2.40;;;16.10;62.50;17.20;100316.00;;;;5034768;28;20200;-50
2022/11/25 02:00:09;;;;;;;4.03;2.67;;;16.10;62.40;17.20;100319.00;;;;5051085;28;20849;-50
2022/11/25 02:02:35;;;;;;;4.80;2.40;;;16.00;62.40;17.10;100314.00;;;;5067744;28;20212;-50
2022/11/25 02:05:07;;;;;;;3.80;2.37;;;16.00;62.50;17.10;100320.00;;;;5067724;28;20202;-50
2022/11/25 02:07:39;;;;;;;3.63;2.20;;;16.00;62.50;17.10;100321.00;;;;5036051;28;20808;-51
2022/11/25 02:10:10;;;;;;;3.40;2.43;;;16.00;62.60;17.10;100310.00;;;;5054483;28;20169;-51
2022/11/25 02:12:37;;;;;;;4.13;2.40;;;16.00;62.60;17.10;100322.00;;;;5072528;28;20166;-51
2022/11/25 02:15:03;;;;;;;3.20;2.20;;;16.00;62.70;17.10;100309.00;;;;5054759;28;20253;-50
2022/11/25 02:17:29;;;;;;;3.10;2.30;;;16.00;62.50;17.10;100317.00;;;;5072321;28;20805;-50
2022/11/25 02:20:15;;;;;;;4.37;2.50;;;16.00;62.50;17.10;100312.00;;;;5054276;28;20288;-50
2022/11/25 02:23:17;;;;;;;3.57;2.20;;;16.00;62.50;17.10;100305.00;;;;5071866;28;20175;-49
2022/11/25 02:25:44;;;;;;;3.13;2.40;;;15.90;62.50;17.10;100285.00;;;;5072146;28;20258;-50
2022/11/25 02:28:12;;;;;;;4.63;2.50;;;15.90;62.50;17.00;100303.00;;;;5037541;28;20195;-53
2022/11/25 02:30:38;;;;;;;3.33;2.43;;;16.00;62.60;17.00;100313.00;;;;5054303;28;20170;-50
2022/11/25 02:33:04;;;;;;;5.60;2.60;;;15.90;62.40;17.00;100304.00;;;;5071279;28;20603;-51
2022/11/25 02:35:38;;;;;;;3.27;2.20;;;15.90;62.50;17.00;100314.00;;;;5071662;28;20545;-51
2022/11/25 02:38:14;;;;;;;4.27;2.50;;;15.90;62.60;17.00;100296.00;;;;5071502;28;20184;-51
2022/11/25 02:41:02;;;;;;;4.43;2.53;;;15.90;62.40;17.00;100290.00;;;;5037691;28;20800;-50
2022/11/25 02:43:28;;;;;;;3.80;2.43;;;15.90;62.50;17.00;100290.00;;;;5051283;28;20624;-50
2022/11/25 02:46:09;;;;;;;3.83;2.57;;;15.90;62.70;17.00;100221.00;;;;5051473;28;20234;-51
2022/11/25 02:48:36;;;;;;;4.27;2.10;;;15.90;62.40;17.00;100291.00;;;;5051834;28;20159;-52
2022/11/25 02:51:02;;;;;;;3.70;2.30;;;15.90;62.40;17.00;100299.00;;;;5051520;28;20175;-51
2022/11/25 02:53:28;;;;;;;6.13;2.70;;;15.90;62.30;17.00;100299.00;;;;5049936;28;20175;-52
2022/11/25 02:55:54;;;;;;;3.23;2.20;;;15.90;62.30;17.00;100292.00;;;;5051348;28;20202;-51
2022/11/25 02:58:19;;;;;;;4.20;2.50;;;16.00;62.40;17.00;100298.00;;;;5033124;28;20187;-52
2022/11/25 03:00:45;;;;;;;3.20;2.20;;;15.90;62.30;16.80;100287.00;;;;5052388;28;20175;-51
2022/11/25 03:03:11;;;;;;;3.77;2.23;;;16.00;62.40;17.00;100265.00;;;;5037020;28;20209;-51
2022/11/25 03:05:37;;;;;;;3.80;2.27;;;15.90;62.30;17.00;100282.00;;;;5051197;28;20682;-51
2022/11/25 03:08:03;;;;;;;3.80;2.40;;;15.90;62.40;17.00;100287.00;;;;5051026;28;20688;-50
2022/11/25 03:10:29;;;;;;;3.20;2.10;;;16.00;62.40;17.00;100298.00;;;;5051168;28;20717;-50
2022/11/25 03:12:55;;;;;;;3.83;2.30;;;15.90;62.30;17.00;100289.00;;;;5050953;28;20204;-52
2022/11/25 03:15:21;;;;;;;3.27;2.30;;;16.00;62.40;17.00;100284.00;;;;5051043;28;20190;-51
2022/11/25 03:17:47;;;;;;;4.43;2.30;;;15.90;62.30;17.00;100285.00;;;;5051616;28;20232;-51
2022/11/25 03:20:13;;;;;;;3.23;2.37;;;15.90;62.30;17.00;100282.00;;;;5055972;28;20173;-52
2022/11/25 03:22:43;;;;;;;3.30;2.20;;;15.90;62.30;17.00;100288.00;;;;5050403;28;20607;-50
2022/11/25 03:25:10;;;;;;;3.50;2.37;;;15.90;62.30;17.00;100292.00;;;;5050825;28;20684;-51
2022/11/25 03:27:36;;;;;;;4.90;2.50;;;15.90;62.30;17.00;100296.00;;;;5050936;28;20290;-50
2022/11/25 03:30:03;;;;;;;3.30;2.30;;;15.90;62.30;17.00;100289.00;;;;5051115;28;20306;-50
2022/11/25 03:32:29;;;;;;;3.87;2.23;;;15.90;62.30;17.00;100305.00;;;;5050606;28;20182;-51
2022/11/25 03:34:55;;;;;;;4.37;2.30;;;15.90;62.40;17.00;100301.00;;;;5050783;28;20175;-52
2022/11/25 03:37:20;;;;;;;4.07;2.27;;;15.90;62.30;17.00;100301.00;;;;5050888;28;20174;-51
2022/11/25 03:39:46;;;;;;;3.80;2.40;;;15.90;62.30;17.00;100301.00;;;;5050653;28;20178;-51
2022/11/25 03:42:12;;;;;;;4.13;2.43;;;15.80;62.20;16.90;100243.00;;;;5050773;28;20174;-52
2022/11/25 03:44:38;;;;;;;3.30;2.13;;;15.90;62.30;16.90;100305.00;;;;5050793;28;20252;-53
2022/11/25 03:47:04;;;;;;;2.77;2.30;;;15.80;62.20;16.90;100306.00;;;;5048893;28;20237;-52
2022/11/25 03:49:30;;;;;;;3.97;2.37;;;15.80;62.30;16.90;100318.00;;;;5050299;28;20243;-54
2022/11/25 03:51:55;;;;;;;3.87;2.40;;;15.80;63.00;16.90;100317.00;;;;5050232;28;20171;-52
2022/11/25 03:54:21;;;;;;;4.67;2.30;;;15.80;62.30;16.90;100317.00;;;;5050387;28;20471;-51
2022/11/25 03:56:47;;;;;;;3.70;2.13;;;15.80;62.20;16.90;100313.00;;;;5049132;28;20304;-52
2022/11/25 03:59:12;;;;;;;3.80;2.30;;;15.80;62.20;16.90;100314.00;;;;5050204;28;20560;-53
2022/11/25 04:01:38;;;;;;;3.60;2.30;;;15.80;62.30;16.90;100306.00;;;;5050028;28;20191;-51
2022/11/25 04:04:04;;;;;;;3.43;2.20;;;15.80;62.30;16.90;100309.00;;;;5050040;28;20277;-53
2022/11/25 04:06:30;;;;;;;3.37;2.20;;;15.80;62.20;16.80;100303.00;;;;5049790;28;20319;-53
2022/11/25 04:08:57;;;;;;;3.80;2.30;;;15.80;62.30;16.80;100310.00;;;;5059228;28;20180;-52
2022/11/25 04:12:45;;;;;;;4.53;2.47;;;15.80;62.20;16.80;100323.00;;;;5051701;28;20223;-51
2022/11/25 04:14:08;;;;;;;5.10;2.80;;;15.70;62.40;16.80;100333.00;;;;5069941;28;20189;-52
2022/11/25 04:16:34;;;;;;;5.60;2.60;;;15.80;62.20;16.80;100331.00;;;;5067542;28;20665;-54
2022/11/25 04:19:00;;;;;;;4.57;2.40;;;15.80;62.20;16.80;100333.00;;;;5069273;28;20331;-52
2022/11/25 04:21:25;;;;;;;6.57;2.40;;;15.70;62.10;16.80;100343.00;;;;5069028;28;20259;-52
2022/11/25 04:23:51;;;;;;;5.37;2.43;;;15.70;62.20;16.80;100335.00;;;;5069089;28;20581;-50
2022/11/25 04:26:17;;;;;;;5.87;2.70;;;15.70;62.10;16.80;100335.00;;;;5069247;28;20197;-52
2022/11/25 04:28:44;;;;;;;6.90;2.90;;;15.60;62.30;16.80;100336.00;;;;5071994;28;20178;-49
2022/11/25 04:31:10;;;;;;;6.50;2.60;;;15.40;62.50;16.80;100342.00;;;;5073470;28;20167;-51
2022/11/25 04:33:36;;;;;;;4.60;2.87;;;15.40;62.50;16.70;100351.00;;;;5074521;28;20177;-51
2022/11/25 04:36:02;;;;;;;6.67;3.13;;;15.30;62.50;16.70;100342.00;;;;5072032;28;20232;-51
2022/11/25 04:38:28;;;;;;;6.57;3.17;;;15.30;62.40;16.70;100353.00;;;;5069373;28;20260;-49
2022/11/25 04:40:54;;;;;;;4.17;2.70;;;15.20;62.00;16.70;100351.00;;;;5069603;28;20387;-51
2022/11/25 04:43:20;;;;;;;8.53;3.47;;;15.20;62.00;16.70;100348.00;;;;5068814;28;20181;-53
2022/11/25 04:45:47;;;;;;;5.80;2.87;;;15.20;62.70;16.70;100349.00;;;;5068846;28;20296;-53
2022/11/25 04:48:12;;;;;;;5.63;2.83;;;15.20;62.10;16.70;100354.00;;;;5050617;28;20355;-51
2022/11/25 04:50:38;;;;;;;5.70;3.17;;;15.20;61.90;16.70;100360.00;;;;5069248;28;20176;-50
2022/11/25 04:53:04;;;;;;;5.63;3.10;;;15.10;61.80;16.60;100370.00;;;;5068963;28;20178;-50
2022/11/25 04:55:30;;;;;;;7.80;3.33;;;15.10;61.90;16.60;100362.00;;;;5069786;28;20213;-51
2022/11/25 04:57:55;;;;;;;6.17;2.90;;;15.10;62.10;16.60;100360.00;;;;5069531;28;20569;-51
2022/11/25 05:00:21;;;;;;;5.60;3.20;;;15.10;62.20;16.60;100373.00;;;;5069574;28;20169;-51
2022/11/25 05:02:47;;;;;;;7.47;3.30;;;15.10;62.10;16.60;100385.00;;;;5068840;28;20170;-52
2022/11/25 05:05:13;;;;;;;6.50;3.17;;;15.10;62.10;16.60;100374.00;;;;5069536;28;20239;-51
2022/11/25 05:07:38;;;;;;;5.97;3.20;;;15.00;62.20;16.60;100388.00;;;;5051494;28;20617;-50
2022/11/25 05:10:05;;;;;;;5.43;2.90;;;15.00;62.20;16.30;100370.00;;;;5051672;28;20169;-51
2022/11/25 05:12:31;;;;;;;6.23;3.07;;;15.00;62.30;16.30;100377.00;;;;5069714;28;20185;-50
2022/11/25 05:14:57;;;;;;;6.37;3.23;;;15.00;62.40;16.50;100372.00;;;;5059906;28;20723;-50
2022/11/25 05:17:25;;;;;;;4.50;2.80;;;15.00;62.30;16.50;100375.00;;;;5049487;28;20186;-54
2022/11/25 05:19:51;;;;;;;5.93;3.23;;;15.00;63.30;16.50;100376.00;;;;5049191;28;20231;-50
2022/11/25 05:22:21;;;;;;;7.20;3.00;;;15.00;62.50;16.50;100372.00;;;;5049198;28;20170;-51
2022/11/25 05:24:46;;;;;;;8.57;3.20;;;15.00;62.50;16.50;100385.00;;;;5049373;28;20711;-49
2022/11/25 05:27:12;;;;;;;7.87;3.40;;;15.00;62.70;16.50;100381.00;;;;5047764;28;20236;-50
2022/11/25 05:29:38;;;;;;;7.97;3.50;;;15.00;62.70;16.50;100384.00;;;;5047888;28;20167;-52
2022/11/25 05:32:04;;;;;;;6.57;3.03;;;14.90;62.60;16.40;100390.00;;;;5048555;28;20521;-51
2022/11/25 05:34:30;;;;;;;7.90;3.00;;;14.90;62.70;16.40;100388.00;;;;5049007;28;20201;-51
2022/11/25 05:36:56;;;;;;;12.27;3.77;;;14.90;62.70;16.40;100394.00;;;;5048873;28;20544;-51
2022/11/25 05:39:22;;;;;;;9.80;3.37;;;14.90;62.90;16.40;100391.00;;;;5048602;28;20229;-51
2022/11/25 05:41:47;;;;;;;8.80;3.33;;;14.90;62.90;16.40;100388.00;;;;5049132;28;20178;-50
2022/11/25 05:44:13;;;;;;;10.47;3.80;;;14.90;63.00;16.40;100392.00;;;;5048556;28;20660;-49
2022/11/25 05:46:39;;;;;;;10.33;3.40;;;14.90;63.00;16.40;100393.00;;;;5030803;28;20202;-50
2022/11/25 05:49:05;;;;;;;6.97;3.70;;;14.90;63.00;16.40;100395.00;;;;5048735;28;20175;-50
2022/11/25 05:51:30;;;;;;;11.97;3.60;;;14.90;63.10;16.40;100397.00;;;;5048704;28;20170;-50
2022/11/25 05:53:56;;;;;;;6.07;3.47;;;14.90;63.10;16.40;100395.00;;;;5048598;28;20253;-51
2022/11/25 05:56:22;;;;;;;11.30;3.37;;;14.90;63.30;16.30;100400.00;;;;5030691;28;20198;-49
2022/11/25 05:58:48;;;;;;;9.30;3.90;;;14.80;63.40;16.30;100392.00;;;;5058580;28;20185;-53
2022/11/25 06:01:14;;;;;;;8.37;3.43;;;14.80;63.30;16.30;100403.00;;;;5061115;28;20178;-49
2022/11/25 06:03:40;;;;;;;7.20;2.97;;;14.80;63.30;16.30;100408.00;;;;5057334;28;20264;-50
2022/11/25 06:06:06;;;;;;;6.93;3.13;;;14.80;63.40;16.30;100410.00;;;;5031420;28;20289;-49
2022/11/25 06:08:32;;;;;;;7.07;3.30;;;14.80;63.50;16.30;100424.00;;;;5048600;28;20269;-50
2022/11/25 06:10:58;;;;;;;6.17;3.20;;;14.80;63.60;16.30;100430.00;;;;5048846;28;20179;-49
2022/11/25 06:13:24;;;;;;;6.23;3.30;;;14.80;63.50;16.30;100438.00;;;;5048217;28;20250;-48
2022/11/25 06:15:49;;;;;;;6.03;3.40;;;14.80;63.50;16.30;100440.00;;;;5047978;28;20682;-50
2022/11/25 06:18:16;;;;;;;6.83;3.67;;;14.90;63.30;16.30;100430.00;;;;5048074;28;20198;-51
2022/11/25 06:20:42;;;;;;;6.03;2.77;;;15.00;63.40;16.30;100437.00;;;;5048550;28;20277;-49
2022/11/25 06:23:08;;;;;;;5.30;3.20;;;15.00;63.60;16.30;100430.00;;;;5068518;28;20631;-50
2022/11/25 06:25:34;;;;;;;7.03;3.20;;;15.00;63.40;16.30;100430.00;;;;5050545;28;20877;-49
2022/11/25 06:28:01;;;;;;;6.17;3.20;;;15.10;63.30;16.30;100432.00;;;;5068648;28;20207;-51
2022/11/25 06:30:27;;;;;;;5.23;3.10;;;15.00;63.10;16.30;100451.00;;;;5068488;28;20265;-50
2022/11/25 06:32:56;;;;;;;7.60;3.00;;;15.00;63.20;16.30;100442.00;;;;5068918;28;20256;-51
2022/11/25 06:35:21;;;;;;;6.83;3.07;;;15.00;63.10;16.30;100449.00;;;;5068013;28;20190;-50
2022/11/25 06:37:47;;;;;;;3.70;2.90;;;15.00;63.20;16.30;100467.00;;;;5067831;28;20181;-51
2022/11/25 06:40:13;;;;;;;6.10;3.30;;;15.00;63.10;16.30;100455.00;;;;5067818;28;20170;-50
2022/11/25 06:42:39;;;;;;;4.77;2.90;;;15.00;63.20;16.30;100471.00;;;;5067697;28;20853;-50
2022/11/25 06:45:05;;;;;;;5.60;2.80;;;15.00;63.20;16.30;100471.00;;;;5050079;28;20177;-50
2022/11/25 06:47:31;;;;;;;5.90;3.13;;;15.00;63.20;16.20;100472.00;;;;5067906;28;20209;-50
2022/11/25 06:49:57;;;;;;;4.40;2.73;;;15.00;63.20;16.30;100476.00;;;;5067670;28;20174;-50
2022/11/25 06:52:22;;;;;;;5.77;2.80;;;15.00;63.20;16.20;100476.00;;;;5068608;28;20170;-49
2022/11/25 06:54:50;;;;;;;5.37;3.07;;;15.00;63.20;16.20;100475.00;;;;5072283;28;20655;-50
2022/11/25 06:57:17;;;;;;;4.73;3.10;;;15.00;63.30;16.20;100482.00;;;;5053943;28;20658;-51
2022/11/25 06:59:43;;;;;;;6.47;3.00;;;15.00;63.30;16.20;100475.00;;;;5071243;28;20201;-49
2022/11/25 07:02:12;;;;;;;4.17;2.67;;;15.00;63.20;16.20;100489.00;;;;5071501;28;20185;-49
2022/11/25 07:04:39;;;;;;;4.07;2.90;;;15.00;63.20;16.20;100476.00;;;;5054357;28;20184;-50
2022/11/25 07:07:05;;;;;;;4.37;2.97;;;15.00;63.20;16.20;100483.00;;;;5071488;28;20213;-50
2022/11/25 07:09:31;;;;;;;3.70;3.00;;;15.00;63.30;16.20;100483.00;;;;5070665;28;20178;-51
2022/11/25 07:11:56;;;;;;;5.40;3.23;;;15.00;63.30;16.20;100480.00;;;;5071009;28;20174;-50
2022/11/25 07:14:22;;;;;;;4.53;2.70;;;14.90;63.10;16.20;100482.00;;;;5053179;28;20178;-51
2022/11/25 07:16:48;;;;;;;4.50;2.67;;;15.00;63.30;16.20;100476.00;;;;5071087;28;20633;-50
2022/11/25 07:19:15;;;;;;;5.83;3.03;;;14.90;63.20;16.20;100488.00;;;;5070826;28;20603;-50
2022/11/25 07:21:42;;;;;;;4.97;3.00;;;15.00;63.30;16.20;100495.00;;;;5070697;28;20657;-49
2022/11/25 07:24:09;;;;;;;5.33;3.03;;;14.90;63.10;15.90;100507.00;;;;5071205;28;20182;-50
2022/11/25 07:26:37;;;;;;;5.00;2.87;;;15.00;63.30;16.20;100510.00;;;;5052962;28;20202;-51
2022/11/25 07:29:05;;;;;;;4.67;2.83;;;14.90;63.10;16.20;100495.00;;;;5055329;28;20177;-50
2022/11/25 07:31:33;;;;;;;6.33;2.90;;;14.90;63.20;16.20;100495.00;;;;5081273;28;20645;-51
2022/11/25 07:34:12;;;;;;;5.50;3.10;;;14.90;63.20;16.20;100510.00;;;;5081533;28;20605;-50
2022/11/25 07:36:38;;;;;;;4.53;2.80;;;14.90;63.30;16.10;100516.00;;;;5054730;28;20285;-50
2022/11/25 07:39:07;;;;;;;3.70;2.50;;;14.90;63.20;16.20;100522.00;;;;5071587;28;20201;-48
2022/11/25 07:41:33;;;;;;;4.53;3.07;;;14.90;63.30;16.20;100524.00;;;;5071001;28;20252;-51
2022/11/25 07:44:01;;;;;;;3.97;2.77;;;14.90;63.20;16.20;100529.00;;;;5071171;28;20180;-48
2022/11/25 07:46:34;;;;;;;5.13;3.00;;;14.90;63.20;16.10;100538.00;;;;5070661;28;20217;-51
2022/11/25 07:49:03;;;;;;;5.80;2.70;;;14.90;63.30;16.20;100543.00;;;;5052688;28;20562;-50
2022/11/25 07:51:32;;;;;;;3.93;2.70;;;14.90;63.30;16.10;100553.00;;;;5070302;28;20166;-50
2022/11/25 07:53:59;;;;;;;4.23;2.90;;;14.90;63.40;16.10;100549.00;;;;5069955;28;20582;-49
2022/11/25 07:56:25;;;;;;;4.37;3.03;;;14.90;63.40;16.10;100550.00;;;;5070327;28;20197;-50
2022/11/25 07:58:51;;;;;;;4.27;2.93;;;14.90;63.40;16.10;100548.00;;;;5070056;28;20185;-50
2022/11/25 08:01:17;;;;;;;5.07;3.00;;;14.90;63.30;16.10;100555.00;;;;5070121;28;20181;-50
2022/11/25 08:03:44;;;;;;;4.20;2.80;;;14.90;63.30;16.10;100562.00;;;;5069671;28;20172;-51
2022/11/25 08:06:12;;;;;;;3.97;2.70;;;14.90;63.40;16.10;100560.00;;;;5069851;28;20210;-51
2022/11/25 08:08:39;;;;;;;4.50;2.80;;;14.90;63.40;16.10;100570.00;;;;5069922;28;20169;-50
2022/11/25 08:11:14;;;;;;;3.63;3.00;;;14.90;63.30;16.10;100562.00;;;;5070156;28;20515;-50
2022/11/25 08:13:40;;;;;;;4.27;2.83;;;14.90;63.40;16.10;100565.00;;;;5070380;28;20176;-49
2022/11/25 08:16:06;;;;;;;3.47;2.70;;;14.90;63.40;16.10;100568.00;;;;5069960;28;20201;-49
2022/11/25 08:18:32;;;;;;;3.60;2.50;;;14.90;63.40;16.10;100575.00;;;;5069546;28;20166;-50
2022/11/25 08:21:05;;;;;;;4.40;2.83;;;14.90;63.40;16.10;100576.00;;;;5069756;28;20188;-51
2022/11/25 08:23:32;;;;;;;3.43;2.60;;;14.90;63.50;16.10;100579.00;;;;5070057;28;20249;-49
2022/11/25 08:26:12;;;;;;;3.67;2.67;;;14.90;63.60;16.10;100579.00;;;;5069606;28;20674;-51
2022/11/25 08:28:40;;;;;;;4.40;2.87;;;14.90;63.50;16.00;100596.00;;;;5053279;28;20172;-52
2022/11/25 08:31:12;;;;;;;3.63;2.53;;;14.90;63.50;16.10;100606.00;;;;5069548;28;20280;-50
2022/11/25 08:33:38;;;;;;;3.60;2.60;;;14.90;64.30;16.00;100610.00;;;;5069761;28;20184;-51
2022/11/25 08:36:05;;;;;;;3.00;2.60;;;14.90;63.50;15.80;100591.00;;;;5069937;28;20195;-51
2022/11/25 08:38:30;;;;;;;4.50;2.70;;;14.90;63.50;16.00;100602.00;;;;5069061;28;20204;-50
2022/11/25 08:40:56;;;;;;;4.30;2.90;;;14.90;63.60;16.00;100607.00;;;;5069526;28;20177;-51
2022/11/25 08:43:22;;;;;;;3.33;2.70;;;14.90;63.50;16.00;100614.00;;;;5069441;28;20247;-51
2022/11/25 08:45:48;;;;;;;3.63;2.83;;;14.90;63.50;16.00;100623.00;;;;5069442;28;20215;-51
2022/11/25 08:48:17;;;;;;;4.07;2.90;;;14.90;63.60;16.00;100619.00;;;;5069299;28;20203;-52
2022/11/25 08:50:49;;;;;;;3.43;2.70;;;14.90;63.70;16.00;100628.00;;;;5069612;28;20166;-50
2022/11/25 08:53:15;;;;;;;4.07;2.90;;;14.80;63.50;16.00;100634.00;;;;5052532;28;20521;-50
2022/11/25 08:55:41;;;;;;;3.70;2.70;;;14.90;63.70;16.00;100641.00;;;;5051975;28;20307;-51
2022/11/25 08:58:11;;;;;;;3.07;2.70;;;14.90;63.70;16.00;100640.00;;;;5044745;28;20181;-50
2022/11/25 09:00:39;;;;;;;3.57;2.63;;;14.90;63.70;16.00;100641.00;;;;5048640;28;20229;-50
2022/11/25 09:03:05;;;;;;;3.13;2.67;;;14.80;63.70;16.00;100633.00;;;;5049449;28;20238;-49
2022/11/25 09:05:34;;;;;;;4.70;3.00;;;14.90;63.80;16.00;100636.00;;;;5049141;28;20194;-54
2022/11/25 09:08:02;;;;;;;4.20;2.80;;;14.90;63.80;15.60;100637.00;;;;5036950;28;20690;-55
2022/11/25 09:10:28;;;;;;;4.80;2.80;;;15.00;63.50;16.00;100633.00;;;;5018334;28;20200;-54
2022/11/25 09:12:54;;;;;;;7.20;3.00;;;15.00;64.10;16.00;100636.00;;;;5060518;28;20170;-52
2022/11/25 09:15:19;;;;;;;6.10;3.43;;;15.00;64.10;16.10;100626.00;;;;5050275;28;20644;-52
2022/11/25 09:17:45;;;;;;;5.93;2.70;;;15.10;64.20;16.10;100630.00;;;;5035754;28;20197;-53
2022/11/25 09:20:11;;;;;;;7.03;2.70;;;15.20;64.10;16.20;100642.00;;;;5060200;28;20184;-53
2022/11/25 09:22:37;;;;;;;5.53;2.50;;;15.30;64.00;16.20;100641.00;;;;5066896;28;20181;-53
2022/11/25 09:25:03;;;;;;;5.13;2.80;;;15.50;63.90;16.30;100642.00;;;;5048033;28;20531;-54
2022/11/25 09:27:30;;;;;;;3.57;2.40;;;15.70;63.70;16.40;100650.00;;;;5059359;28;20299;-54
2022/11/25 09:29:56;;;;;;;3.43;2.43;;;15.80;63.40;16.50;100661.00;;;;5066295;28;20165;-53
2022/11/25 09:32:22;;;;;;;8.33;2.80;;;15.90;63.20;16.60;100662.00;;;;5051751;28;20179;-51
2022/11/25 09:34:47;;;;;;;5.93;2.63;;;16.10;63.80;16.70;100658.00;;;;5066206;28;20177;-51
2022/11/25 09:37:13;;;;;;;4.73;2.77;;;16.20;63.10;16.80;100664.00;;;;5067133;28;20534;-51
2022/11/25 09:39:39;;;;;;;31.80;5.97;;;16.40;62.90;16.90;100684.00;;;;5063940;28;20204;-50
2022/11/25 09:48:39;;;;;;;13.13;3.67;;;16.70;64.80;17.10;100682.00;;;;5038874;28;20207;-51
2022/11/25 09:51:23;;;;;;;12.57;3.60;;;16.80;64.50;17.20;100683.00;;;;5050908;28;20185;-50
2022/11/25 09:54:17;;;;;;;8.93;3.57;;;16.90;64.00;17.40;100675.00;;;;5044781;28;20182;-51
2022/11/25 09:57:33;;;;;;;9.70;3.57;;;17.00;64.00;17.40;100693.00;;;;5049481;28;20198;-52
2022/11/25 10:00:06;;;;;;;8.30;3.60;;;17.00;64.70;17.50;100685.00;;;;5062581;28;20188;-50
2022/11/25 10:02:50;;;;;;;8.30;3.47;;;17.00;63.90;17.50;100704.00;;;;5067290;28;20197;-52
2022/11/25 10:05:23;;;;;;;6.67;3.30;;;17.10;64.00;17.60;100701.00;;;;5049270;28;20190;-52
2022/11/25 10:07:54;;;;;;;8.63;3.13;;;17.10;64.50;17.60;100701.00;;;;5044188;28;20201;-50
2022/11/25 10:10:31;;;;;;;9.20;3.60;;;17.10;64.30;17.70;100706.00;;;;4981373;28;20166;-52
2022/11/25 10:12:57;;;;;;;10.00;3.43;;;17.10;64.40;17.70;100695.00;;;;5049629;28;20165;-50
2022/11/25 10:15:31;;;;;;;9.07;3.50;;;17.10;64.50;17.70;100705.00;;;;5049870;28;20198;-51
2022/11/25 10:18:03;;;;;;;7.77;3.17;;;17.10;64.70;17.80;100704.00;;;;5048692;28;20243;-50
2022/11/25 10:20:36;;;;;;;8.20;3.10;;;17.10;65.00;17.80;100698.00;;;;5049975;28;20545;-51
2022/11/25 10:23:14;;;;;;;7.83;3.70;;;17.10;65.00;17.90;100701.00;;;;5050126;28;20549;-50
2022/11/25 10:25:45;;;;;;;9.47;3.50;;;17.10;65.50;17.90;100707.00;;;;5049592;28;20202;-51
2022/11/25 10:28:21;;;;;;;15.10;3.63;;;17.20;66.40;17.90;100708.00;;;;5052051;28;20173;-51
2022/11/25 10:31:22;;;;;;;9.37;3.30;;;17.20;66.40;17.90;100719.00;;;;5072159;28;20170;-51
2022/11/25 10:33:51;;;;;;;10.00;3.50;;;17.20;66.40;17.90;100721.00;;;;5067310;28;20190;-50
2022/11/25 10:36:29;;;;;;;9.53;3.37;;;17.20;66.40;17.90;100729.00;;;;5054334;28;20202;-50
2022/11/25 10:39:23;;;;;;;7.97;3.50;;;17.10;66.30;17.90;100732.00;;;;5071717;28;20168;-50
2022/11/25 10:42:02;;;;;;;11.77;3.53;;;17.10;66.40;17.90;100737.00;;;;5041062;28;20189;-50
2022/11/25 10:44:36;;;;;;;7.67;3.40;;;17.10;66.40;17.90;100727.00;;;;5054619;28;20165;-50
2022/11/25 10:47:35;;;;;;;8.87;3.23;;;17.00;66.30;17.90;100734.00;;;;5053531;28;20208;-50
2022/11/25 10:50:21;;;;;;;6.27;2.93;;;17.00;66.60;17.90;100740.00;;;;5054718;28;20172;-52
2022/11/25 10:53:01;;;;;;;6.37;3.23;;;16.90;66.60;17.90;100741.00;;;;5070838;28;20178;-51
2022/11/25 10:55:30;;;;;;;5.40;3.00;;;16.90;66.70;17.90;100742.00;;;;5053120;28;20294;-50
2022/11/25 10:57:56;;;;;;;5.43;3.10;;;16.90;66.80;17.90;100739.00;;;;5071189;28;20152;-51
2022/11/25 11:00:36;;;;;;;3.97;2.93;;;16.90;66.80;17.90;100737.00;;;;5053701;28;20185;-52
2022/11/25 11:03:20;;;;;;;6.07;3.10;;;16.90;66.80;17.90;100741.00;;;;5071255;28;20279;-50